Terminal Aerodrome Forecast
Issued by NWS Boston, MA

Home | Current Version | Previous Version | Text Only | Print | Product List | Glossary On
Versions: 1 2 3 4 5 6 7 8 9 10 11 12 13 14 15 16 17 18 19 20 21 22 23 24 25 26 27 28 29 30 31 32 33 34 35 36 37 38 39 40 41 42 43 44 45 46
000
FTUS41 KBOX 261725
TAFBOS
TAF
KBOS 261725Z 2618/2724 08011KT P6SM OVC070
     FM262200 10009KT P6SM VCSH OVC050
     FM270100 12009KT P6SM OVC050
     FM270700 13012KT P6SM -RA OVC040
     FM270900 12011KT P6SM -RA OVC015
     FM271800 13007KT 2SM -RA BR OVC008=

USA.gov is the U.S. government's official web portal to all federal, state and local government web resources and services.